createdAt,value
2023-03-06T00:00:21.346Z,54.04
2023-03-06T00:02:47.620Z,54.23
2023-03-06T00:05:13.877Z,53.85
2023-03-06T00:07:40.212Z,53.98
2023-03-06T00:10:06.464Z,54.25
2023-03-06T00:12:32.725Z,53.98
2023-03-06T00:14:59.033Z,54.33
2023-03-06T00:17:25.295Z,54.55
2023-03-06T00:19:51.540Z,54.24
2023-03-06T00:22:17.803Z,54.41
2023-03-06T00:24:44.078Z,54.57
2023-03-06T00:27:10.345Z,54.65
2023-03-06T00:29:36.647Z,54.40
2023-03-06T00:32:02.936Z,53.96
2023-03-06T00:34:29.208Z,53.80
2023-03-06T00:36:55.679Z,53.89
2023-03-06T00:39:22.007Z,54.39
2023-03-06T00:41:48.283Z,53.96
2023-03-06T00:44:14.557Z,53.92
2023-03-06T00:46:40.829Z,53.75
2023-03-06T00:49:07.271Z,53.71
2023-03-06T00:51:33.535Z,54.02
2023-03-06T00:53:59.792Z,54.08
2023-03-06T00:56:26.054Z,54.16
2023-03-06T00:58:52.336Z,54.27
2023-03-06T01:01:18.624Z,54.15
2023-03-06T01:03:44.932Z,54.01
2023-03-06T01:06:11.213Z,54.33
2023-03-06T01:08:37.482Z,54.12
2023-03-06T01:11:03.749Z,54.04
2023-03-06T01:13:30.066Z,54.02
2023-03-06T01:15:56.341Z,54.21
2023-03-06T01:18:22.709Z,54.41
2023-03-06T01:20:48.991Z,54.16
2023-03-06T01:23:15.262Z,54.61
2023-03-06T01:25:41.553Z,54.65
2023-03-06T01:28:07.822Z,54.92
2023-03-06T01:30:34.109Z,54.88
2023-03-06T01:33:00.357Z,55.07
2023-03-06T01:35:26.657Z,55.16
2023-03-06T01:37:52.963Z,55.58
2023-03-06T01:40:19.242Z,55.78
2023-03-06T01:42:46.803Z,55.59
2023-03-06T01:45:13.176Z,55.83
2023-03-06T01:47:39.457Z,56.10
2023-03-06T01:50:05.732Z,56.02
2023-03-06T01:52:31.992Z,55.57
2023-03-06T01:54:58.292Z,55.72
2023-03-06T01:57:24.561Z,55.82
2023-03-06T01:59:50.822Z,55.75
2023-03-06T02:02:17.128Z,56.04
2023-03-06T02:04:43.431Z,56.02
2023-03-06T02:07:09.733Z,56.04
2023-03-06T02:09:35.982Z,56.38
2023-03-06T02:12:02.287Z,56.23
2023-03-06T02:14:28.578Z,56.86
2023-03-06T02:16:54.898Z,56.59
2023-03-06T02:19:21.237Z,56.50
2023-03-06T02:21:47.519Z,56.78
2023-03-06T02:24:13.810Z,56.61
2023-03-06T02:26:40.080Z,56.67
2023-03-06T02:29:06.344Z,56.67
2023-03-06T02:31:32.649Z,56.83
2023-03-06T02:33:58.979Z,56.70
2023-03-06T02:36:25.281Z,57.15
2023-03-06T02:38:51.532Z,56.77
2023-03-06T02:41:17.828Z,56.58
2023-03-06T02:43:44.119Z,56.32
2023-03-06T02:46:10.508Z,56.65
2023-03-06T02:48:36.820Z,56.20
2023-03-06T02:51:03.107Z,56.07
2023-03-06T02:53:29.388Z,56.38
2023-03-06T02:55:55.640Z,56.33
2023-03-06T02:58:21.955Z,56.47
2023-03-06T03:00:48.233Z,56.33
2023-03-06T03:03:14.534Z,56.39
2023-03-06T03:05:40.809Z,56.75
2023-03-06T03:08:07.070Z,56.52
2023-03-06T03:10:33.342Z,56.90
2023-03-06T03:12:59.605Z,56.74
2023-03-06T03:15:25.881Z,56.56
2023-03-06T03:17:52.253Z,56.44
2023-03-06T03:20:18.529Z,56.49
2023-03-06T03:22:44.787Z,56.35
2023-03-06T03:25:11.061Z,56.51
2023-03-06T03:27:37.355Z,56.16
2023-03-06T03:30:03.622Z,56.05
2023-03-06T03:32:29.897Z,56.51
2023-03-06T03:34:56.202Z,56.31
2023-03-06T03:37:22.493Z,56.51
2023-03-06T03:39:48.785Z,55.83
2023-03-06T03:42:15.057Z,56.34
2023-03-06T03:44:41.344Z,56.20
2023-03-06T03:47:07.615Z,56.20
2023-03-06T03:49:33.872Z,56.38
2023-03-06T03:52:00.196Z,56.50
2023-03-06T03:54:26.508Z,56.66
2023-03-06T03:56:52.770Z,56.49
2023-03-06T03:59:19.029Z,56.49
2023-03-06T04:01:45.310Z,56.63
2023-03-06T04:04:11.629Z,56.47
2023-03-06T04:06:37.910Z,56.68
2023-03-06T04:09:04.183Z,56.58
2023-03-06T04:11:30.449Z,56.52
2023-03-06T04:13:56.715Z,56.42
2023-03-06T04:16:23.139Z,56.58
2023-03-06T04:18:49.497Z,56.65
2023-03-06T04:21:15.762Z,56.38
2023-03-06T04:23:42.053Z,56.21
2023-03-06T04:26:08.331Z,56.23
2023-03-06T04:28:34.614Z,56.35
2023-03-06T04:31:00.867Z,56.35
2023-03-06T04:33:27.146Z,56.15
2023-03-06T04:35:53.475Z,55.93
2023-03-06T04:38:19.805Z,55.94
2023-03-06T04:40:46.071Z,56.31
2023-03-06T04:43:12.554Z,56.52
2023-03-06T04:45:38.863Z,56.84
2023-03-06T04:48:05.246Z,56.78
2023-03-06T04:50:31.528Z,56.74
2023-03-06T04:52:57.790Z,57.25
2023-03-06T04:55:24.058Z,56.93
2023-03-06T04:57:50.641Z,56.84
2023-03-06T05:00:17.975Z,56.78
2023-03-06T05:02:44.262Z,56.80
2023-03-06T05:05:10.523Z,57.11
2023-03-06T05:07:36.789Z,57.27
2023-03-06T05:10:03.079Z,56.86
2023-03-06T05:12:29.354Z,56.93
2023-03-06T05:14:55.651Z,56.28
2023-03-06T05:17:21.933Z,56.98
2023-03-06T05:19:48.198Z,56.78
2023-03-06T05:22:14.458Z,57.18
2023-03-06T05:24:40.745Z,56.98
2023-03-06T05:27:07.016Z,57.13
2023-03-06T05:29:33.261Z,56.86
2023-03-06T05:31:59.592Z,56.68
2023-03-06T05:34:26.068Z,56.57
2023-03-06T05:36:52.354Z,56.51
2023-03-06T05:39:18.662Z,56.63
2023-03-06T05:41:44.949Z,56.54
2023-03-06T05:44:11.251Z,56.65
2023-03-06T05:46:37.518Z,57.21
2023-03-06T05:49:03.780Z,56.92
2023-03-06T05:51:30.039Z,57.33
2023-03-06T05:53:56.336Z,57.43
2023-03-06T05:56:22.586Z,56.87
2023-03-06T05:58:48.843Z,57.14
2023-03-06T06:01:15.128Z,57.29
2023-03-06T06:03:41.580Z,57.55
2023-03-06T06:06:07.912Z,58.19
2023-03-06T06:08:34.198Z,58.19
2023-03-06T06:11:00.533Z,57.75
2023-03-06T06:13:26.826Z,57.67
2023-03-06T06:15:53.144Z,57.24
2023-03-06T06:18:19.462Z,57.22
2023-03-06T06:20:45.759Z,57.46
2023-03-06T06:23:12.039Z,57.69
2023-03-06T06:25:38.328Z,57.87
2023-03-06T06:28:04.637Z,58.33
2023-03-06T06:30:30.913Z,58.10
2023-03-06T06:32:57.215Z,57.58
2023-03-06T06:35:23.490Z,57.83
2023-03-06T06:37:49.795Z,57.77
2023-03-06T06:40:16.070Z,58.24
2023-03-06T06:42:42.374Z,57.95
2023-03-06T06:45:08.688Z,57.64
2023-03-06T06:47:35.040Z,57.67
2023-03-06T06:50:01.350Z,58.15
2023-03-06T06:52:27.637Z,57.95
2023-03-06T06:54:53.923Z,58.07
2023-03-06T06:57:20.193Z,58.03
2023-03-06T06:59:46.492Z,58.36
2023-03-06T07:02:12.766Z,58.27
2023-03-06T07:04:44.290Z,58.16
2023-03-06T07:07:15.491Z,58.84
2023-03-06T07:09:41.781Z,58.41
2023-03-06T07:12:08.043Z,58.63
2023-03-06T07:14:34.336Z,58.05
2023-03-06T07:17:00.611Z,57.85
2023-03-06T07:19:26.899Z,58.07
2023-03-06T07:21:53.179Z,57.96
2023-03-06T07:24:19.513Z,58.12
2023-03-06T07:26:45.771Z,58.68
2023-03-06T07:29:12.063Z,58.60
2023-03-06T07:31:38.469Z,58.75
2023-03-06T07:34:05.178Z,58.90
2023-03-06T07:36:31.470Z,58.07
2023-03-06T07:38:57.746Z,58.10
2023-03-06T07:41:24.020Z,57.93
2023-03-06T07:43:50.341Z,57.89
2023-03-06T07:46:16.753Z,57.80
2023-03-06T07:48:43.109Z,58.28
2023-03-06T07:51:09.384Z,58.50
2023-03-06T07:53:35.691Z,58.74
2023-03-06T07:56:01.965Z,58.72
2023-03-06T07:58:28.282Z,58.87
2023-03-06T08:00:54.560Z,59.11
2023-03-06T08:03:20.841Z,58.90
2023-03-06T08:05:47.105Z,58.27
2023-03-06T08:08:13.375Z,58.43
2023-03-06T08:10:39.646Z,58.13
2023-03-06T08:13:05.990Z,58.87
2023-03-06T08:15:32.285Z,59.02
2023-03-06T08:17:58.549Z,59.81
2023-03-06T08:20:24.862Z,59.35
2023-03-06T08:22:51.158Z,58.76
2023-03-06T08:25:17.456Z,58.85
2023-03-06T08:27:43.785Z,58.94
2023-03-06T08:30:10.087Z,58.49
2023-03-06T08:32:36.425Z,58.49
2023-03-06T08:35:02.741Z,58.17
2023-03-06T08:37:29.080Z,58.97
2023-03-06T08:39:55.364Z,58.09
2023-03-06T08:42:21.624Z,58.80
2023-03-06T08:44:47.938Z,57.58
2023-03-06T08:47:14.202Z,58.13
2023-03-06T08:49:40.510Z,58.57
2023-03-06T08:52:06.770Z,58.71
2023-03-06T08:54:33.020Z,58.16
2023-03-06T08:56:59.290Z,58.46
2023-03-06T08:59:25.556Z,59.22
2023-03-06T09:01:51.830Z,58.51
2023-03-06T09:04:18.101Z,57.99
2023-03-06T09:06:44.385Z,58.45
2023-03-06T09:09:10.663Z,59.14
2023-03-06T09:11:36.927Z,57.70
2023-03-06T09:14:03.216Z,59.38
2023-03-06T09:16:29.550Z,56.65
2023-03-06T09:18:55.857Z,56.05
2023-03-06T09:21:22.165Z,55.89
2023-03-06T09:23:48.425Z,55.40
2023-03-06T09:26:14.684Z,55.54
2023-03-06T09:28:40.968Z,54.96
2023-03-06T09:31:07.308Z,55.23
2023-03-06T09:33:33.657Z,54.08
2023-03-06T09:36:00.013Z,54.76
2023-03-06T09:38:26.318Z,54.64
2023-03-06T09:40:52.586Z,55.74
2023-03-06T09:43:18.852Z,55.81
2023-03-06T09:45:45.157Z,56.10
2023-03-06T09:48:11.528Z,55.83
2023-03-06T09:50:37.866Z,55.72
2023-03-06T09:53:04.142Z,55.43
2023-03-06T09:55:30.422Z,56.59
2023-03-06T09:57:56.689Z,56.81
2023-03-06T10:00:23.017Z,55.77
2023-03-06T10:02:49.448Z,54.37
2023-03-06T10:05:15.820Z,54.19
2023-03-06T10:07:42.098Z,54.21
2023-03-06T10:10:08.369Z,53.81
2023-03-06T10:12:34.655Z,54.17
2023-03-06T10:15:00.907Z,53.88
2023-03-06T10:17:27.168Z,52.78
2023-03-06T10:19:53.452Z,52.92
2023-03-06T10:22:19.736Z,53.55
2023-03-06T10:24:46.048Z,53.01
2023-03-06T10:27:12.373Z,53.35
2023-03-06T10:29:39.287Z,52.47
2023-03-06T10:32:05.612Z,54.52
2023-03-06T10:34:31.902Z,54.23
2023-03-06T10:36:58.171Z,53.52
2023-03-06T10:39:24.455Z,53.53
2023-03-06T10:41:50.767Z,53.63
2023-03-06T10:44:17.027Z,54.37
2023-03-06T10:46:43.409Z,54.55
2023-03-06T10:49:09.772Z,53.05
2023-03-06T10:51:36.057Z,52.89
2023-03-06T10:54:02.322Z,53.96
2023-03-06T10:56:28.610Z,52.88
2023-03-06T10:58:54.882Z,52.31
2023-03-06T11:01:21.238Z,52.44
2023-03-06T11:03:47.585Z,51.89
2023-03-06T11:06:13.872Z,52.95
2023-03-06T11:08:40.222Z,51.51
2023-03-06T11:11:06.518Z,50.40
2023-03-06T11:13:32.797Z,50.33
2023-03-06T11:15:59.113Z,50.14
2023-03-06T11:18:25.428Z,50.47
2023-03-06T11:20:53.143Z,50.70
2023-03-06T11:23:19.562Z,50.35
2023-03-06T11:25:45.855Z,50.62
2023-03-06T11:28:12.104Z,50.28
2023-03-06T11:30:38.375Z,50.24
2023-03-06T11:33:04.680Z,51.06
2023-03-06T11:35:30.979Z,51.05
2023-03-06T11:37:57.328Z,50.65
2023-03-06T11:40:23.635Z,50.70
2023-03-06T11:42:49.908Z,50.72
2023-03-06T11:45:16.206Z,50.83
2023-03-06T11:47:42.463Z,49.71
2023-03-06T11:50:08.838Z,49.99
2023-03-06T11:52:35.158Z,51.89
2023-03-06T11:55:01.484Z,50.02
2023-03-06T11:57:27.785Z,49.88
2023-03-06T11:59:54.086Z,50.56
2023-03-06T12:02:20.374Z,50.10
2023-03-06T12:04:46.650Z,48.84
2023-03-06T12:07:12.934Z,50.26
2023-03-06T12:09:39.225Z,49.81
2023-03-06T12:12:05.486Z,49.20
2023-03-06T12:14:31.759Z,47.82
2023-03-06T12:16:58.038Z,47.79
2023-03-06T12:19:24.341Z,48.58
2023-03-06T12:21:50.640Z,47.27
2023-03-06T12:24:16.913Z,47.43
2023-03-06T12:26:43.244Z,48.66
2023-03-06T12:29:09.553Z,48.23
2023-03-06T12:31:35.877Z,48.12
2023-03-06T12:34:02.200Z,47.59
2023-03-06T12:36:28.496Z,48.50
2023-03-06T12:38:54.794Z,46.82
2023-03-06T12:41:21.103Z,48.28
2023-03-06T12:43:47.381Z,45.41
2023-03-06T12:46:13.783Z,46.67
2023-03-06T12:48:40.078Z,46.29
2023-03-06T12:51:06.360Z,45.64
2023-03-06T12:53:32.647Z,45.50
2023-03-06T12:55:58.971Z,44.95
2023-03-06T12:58:25.242Z,42.93
2023-03-06T13:00:55.386Z,42.83
2023-03-06T13:03:24.962Z,42.39
2023-03-06T13:05:51.256Z,43.67
2023-03-06T13:08:17.542Z,43.55
2023-03-06T13:10:43.816Z,43.44
2023-03-06T13:13:10.122Z,43.48
2023-03-06T13:15:36.400Z,42.17
2023-03-06T13:18:02.671Z,42.64
2023-03-06T13:20:28.929Z,43.13
2023-03-06T13:22:55.233Z,43.38
2023-03-06T13:25:21.545Z,43.94
2023-03-06T13:27:47.889Z,42.90
2023-03-06T13:30:14.148Z,42.98
2023-03-06T13:32:40.463Z,41.20
2023-03-06T13:35:06.752Z,40.93
2023-03-06T13:37:32.999Z,40.59
2023-03-06T13:39:59.265Z,40.70
2023-03-06T13:42:25.563Z,40.60
2023-03-06T13:44:51.865Z,40.72
2023-03-06T13:47:18.160Z,41.26
2023-03-06T13:49:44.423Z,40.97
2023-03-06T13:52:10.793Z,40.89
2023-03-06T13:54:37.089Z,41.28
2023-03-06T13:57:03.372Z,38.46
2023-03-06T13:59:29.637Z,39.59
2023-03-06T14:01:55.913Z,39.34
2023-03-06T14:04:22.198Z,38.30
2023-03-06T14:06:48.481Z,39.22
2023-03-06T14:09:14.738Z,38.01
2023-03-06T14:11:41.024Z,38.10
2023-03-06T14:14:07.304Z,37.73
2023-03-06T14:16:47.592Z,37.09
2023-03-06T14:19:15.899Z,38.02
2023-03-06T14:21:42.229Z,36.34
2023-03-06T14:24:08.584Z,37.50
2023-03-06T14:26:34.867Z,37.87
2023-03-06T14:29:01.145Z,36.94
2023-03-06T14:31:27.466Z,34.78
2023-03-06T14:33:53.774Z,33.95
2023-03-06T14:36:20.085Z,38.04
2023-03-06T14:38:46.372Z,37.54
2023-03-06T14:41:14.116Z,38.25
2023-03-06T14:43:40.517Z,37.88
2023-03-06T14:46:06.815Z,36.43
2023-03-06T14:48:33.158Z,37.10
2023-03-06T14:50:59.436Z,37.17
2023-03-06T14:53:25.712Z,37.38
2023-03-06T14:55:52.047Z,36.89
2023-03-06T14:58:18.386Z,35.50
2023-03-06T15:00:44.780Z,36.46
2023-03-06T15:03:11.114Z,37.28
2023-03-06T15:05:37.396Z,36.38
2023-03-06T15:08:03.680Z,37.34
2023-03-06T15:10:29.988Z,36.12
2023-03-06T15:12:56.250Z,36.53
2023-03-06T15:15:22.529Z,35.86
2023-03-06T15:17:48.806Z,35.31
2023-03-06T15:20:15.080Z,33.76
2023-03-06T15:22:41.363Z,33.79
2023-03-06T15:25:07.648Z,33.79
2023-03-06T15:27:33.939Z,34.05
2023-03-06T15:30:00.216Z,33.94
2023-03-06T15:32:26.560Z,35.75
2023-03-06T15:34:52.866Z,35.24
2023-03-06T15:37:19.144Z,34.68
2023-03-06T15:39:45.436Z,34.82
2023-03-06T15:42:11.725Z,35.21
2023-03-06T15:44:38.028Z,35.35
2023-03-06T15:47:11.308Z,34.65
2023-03-06T15:49:37.596Z,34.75
2023-03-06T15:52:03.921Z,34.00
2023-03-06T15:54:32.766Z,34.00
2023-03-06T15:56:59.228Z,32.29
2023-03-06T15:59:25.515Z,33.58
2023-03-06T16:01:51.783Z,33.64
2023-03-06T16:04:18.070Z,32.33
2023-03-06T16:06:44.373Z,32.74
2023-03-06T16:09:10.709Z,33.46
2023-03-06T16:11:43.755Z,32.47
2023-03-06T16:14:10.422Z,31.20
2023-03-06T16:16:36.751Z,31.53
2023-03-06T16:19:03.074Z,31.35
2023-03-06T16:21:29.359Z,31.13
2023-03-06T16:23:55.643Z,31.37
2023-03-06T16:26:21.937Z,31.32
2023-03-06T16:28:48.283Z,31.86
2023-03-06T16:31:14.625Z,31.51
2023-03-06T16:33:40.961Z,30.86
2023-03-06T16:36:07.249Z,31.23
2023-03-06T16:38:33.533Z,31.04
2023-03-06T16:40:59.903Z,30.02
2023-03-06T16:43:26.193Z,30.83
2023-03-06T16:45:52.651Z,31.51
2023-03-06T16:48:18.945Z,29.91
2023-03-06T16:50:45.271Z,31.64
2023-03-06T16:53:11.602Z,30.55
2023-03-06T16:55:37.891Z,30.46
2023-03-06T16:58:04.196Z,30.44
2023-03-06T17:00:31.374Z,32.10
2023-03-06T17:02:57.695Z,32.75
2023-03-06T17:05:24.003Z,32.43
2023-03-06T17:07:50.337Z,32.89
2023-03-06T17:10:16.652Z,32.28
2023-03-06T17:12:42.943Z,32.80
2023-03-06T17:15:09.202Z,33.21
2023-03-06T17:17:35.535Z,32.71
2023-03-06T17:20:01.834Z,33.63
2023-03-06T17:22:28.151Z,33.90
2023-03-06T17:24:54.448Z,33.41
2023-03-06T17:27:20.702Z,34.31
2023-03-06T17:29:46.972Z,34.84
2023-03-06T17:32:13.289Z,34.15
2023-03-06T17:34:39.611Z,34.74
2023-03-06T17:37:05.915Z,33.98
2023-03-06T17:39:32.204Z,34.93
2023-03-06T17:41:58.448Z,34.29
2023-03-06T17:44:24.745Z,34.92
2023-03-06T17:46:51.030Z,35.89
2023-03-06T17:49:17.341Z,34.84
2023-03-06T17:51:43.605Z,35.15
2023-03-06T17:54:09.862Z,35.29
2023-03-06T17:56:36.190Z,35.01
2023-03-06T17:59:02.451Z,34.46
2023-03-06T18:01:28.766Z,34.97
2023-03-06T18:03:55.043Z,35.23
2023-03-06T18:06:21.317Z,35.15
2023-03-06T18:08:47.591Z,36.07
2023-03-06T18:11:13.865Z,36.67
2023-03-06T18:13:40.200Z,37.23
2023-03-06T18:16:06.525Z,37.01
2023-03-06T18:18:32.812Z,37.25
2023-03-06T18:20:59.073Z,36.94
2023-03-06T18:23:25.352Z,37.36
2023-03-06T18:25:51.708Z,36.73
2023-03-06T18:28:19.676Z,36.63
2023-03-06T18:30:46.111Z,37.96
2023-03-06T18:33:12.574Z,37.77
2023-03-06T18:35:38.890Z,36.86
2023-03-06T18:38:05.238Z,38.28
2023-03-06T18:40:31.527Z,37.15
2023-03-06T18:42:57.791Z,38.24
2023-03-06T18:45:24.072Z,37.55
2023-03-06T18:47:50.344Z,37.29
2023-03-06T18:50:16.609Z,38.44
2023-03-06T18:52:42.907Z,38.16
2023-03-06T18:55:09.239Z,37.99
2023-03-06T18:57:35.526Z,37.98
2023-03-06T19:00:01.832Z,38.45
2023-03-06T19:02:28.137Z,38.60
2023-03-06T19:04:54.390Z,37.96
2023-03-06T19:07:20.665Z,37.87
2023-03-06T19:09:46.948Z,37.23
2023-03-06T19:12:13.233Z,37.77
2023-03-06T19:14:39.508Z,37.42
2023-03-06T19:17:05.787Z,37.30
2023-03-06T19:19:32.089Z,36.09
2023-03-06T19:21:58.373Z,37.05
2023-03-06T19:24:24.662Z,37.17
2023-03-06T19:26:50.976Z,37.38
2023-03-06T19:29:17.233Z,38.41
2023-03-06T19:31:43.584Z,38.97
2023-03-06T19:34:09.925Z,39.88
2023-03-06T19:36:36.341Z,39.74
2023-03-06T19:39:02.595Z,40.31
2023-03-06T19:41:28.877Z,39.93
2023-03-06T19:43:55.153Z,40.10
2023-03-06T19:46:21.463Z,40.13
2023-03-06T19:48:47.813Z,40.24
2023-03-06T19:51:14.079Z,39.88
2023-03-06T19:53:40.380Z,39.51
2023-03-06T19:56:06.640Z,39.99
2023-03-06T19:58:32.942Z,39.78
2023-03-06T20:00:59.248Z,39.57
2023-03-06T20:03:25.547Z,39.98
2023-03-06T20:05:51.876Z,40.43
2023-03-06T20:08:18.239Z,40.28
2023-03-06T20:10:44.512Z,40.74
2023-03-06T20:13:10.771Z,40.77
2023-03-06T20:15:37.202Z,40.88
2023-03-06T20:18:03.542Z,41.21
2023-03-06T20:20:29.868Z,41.06
2023-03-06T20:22:56.212Z,40.74
2023-03-06T20:25:22.508Z,41.01
2023-03-06T20:27:48.788Z,41.10
2023-03-06T20:30:15.058Z,41.22
2023-03-06T20:32:41.381Z,41.03
2023-03-06T20:35:07.650Z,41.37
2023-03-06T20:37:33.957Z,40.80
2023-03-06T20:40:00.254Z,40.72
2023-03-06T20:42:26.521Z,40.59
2023-03-06T20:44:52.825Z,40.59
2023-03-06T20:47:19.099Z,40.53
2023-03-06T20:49:45.384Z,40.85
2023-03-06T20:52:11.693Z,40.92
2023-03-06T20:54:37.956Z,40.70
2023-03-06T20:57:04.316Z,40.72
2023-03-06T20:59:30.771Z,40.78
2023-03-06T21:01:57.122Z,40.60
2023-03-06T21:04:23.405Z,40.73
2023-03-06T21:06:49.674Z,41.18
2023-03-06T21:09:15.950Z,40.62
2023-03-06T21:11:42.247Z,40.17
2023-03-06T21:14:08.559Z,40.28
2023-03-06T21:16:34.848Z,40.60
2023-03-06T21:19:01.133Z,40.61
2023-03-06T21:21:27.401Z,40.67
2023-03-06T21:23:53.841Z,40.35
2023-03-06T21:26:20.117Z,40.39
2023-03-06T21:28:46.421Z,40.38
2023-03-06T21:31:12.729Z,40.47
2023-03-06T21:33:39.025Z,40.27
2023-03-06T21:36:05.312Z,40.67
2023-03-06T21:38:31.593Z,40.79
2023-03-06T21:40:57.891Z,40.60
2023-03-06T21:43:24.170Z,40.99
2023-03-06T21:45:50.469Z,40.63
2023-03-06T21:48:16.807Z,41.02
2023-03-06T21:50:43.086Z,41.00
2023-03-06T21:53:09.368Z,41.06
2023-03-06T21:55:35.633Z,40.84
2023-03-06T21:58:01.986Z,40.50
2023-03-06T22:00:28.261Z,40.81
2023-03-06T22:02:54.542Z,40.70
2023-03-06T22:05:20.834Z,40.71
2023-03-06T22:07:47.099Z,41.06
2023-03-06T22:10:13.364Z,41.02
2023-03-06T22:12:39.652Z,41.13
2023-03-06T22:15:05.943Z,41.68
2023-03-06T22:17:32.254Z,41.64
2023-03-06T22:19:58.533Z,41.94
2023-03-06T22:22:24.828Z,42.06
2023-03-06T22:24:51.136Z,41.93
2023-03-06T22:27:17.466Z,42.31
2023-03-06T22:29:43.755Z,41.86
2023-03-06T22:32:10.128Z,41.82
2023-03-06T22:34:36.462Z,41.93
2023-03-06T22:37:02.783Z,41.89
2023-03-06T22:39:29.056Z,42.34
2023-03-06T22:41:55.342Z,42.91
2023-03-06T22:44:21.613Z,42.25
2023-03-06T22:46:47.879Z,42.04
2023-03-06T22:49:14.165Z,41.80
2023-03-06T22:51:40.472Z,42.33
2023-03-06T22:54:06.731Z,42.38
2023-03-06T22:56:33.009Z,42.00
2023-03-06T22:58:59.316Z,41.75
2023-03-06T23:01:25.635Z,42.24
2023-03-06T23:03:52.036Z,41.88
2023-03-06T23:06:18.321Z,41.98
2023-03-06T23:08:44.615Z,41.55
2023-03-06T23:11:10.901Z,41.48
2023-03-06T23:13:37.189Z,41.63
2023-03-06T23:16:03.519Z,41.21
2023-03-06T23:18:29.850Z,41.77
2023-03-06T23:20:56.111Z,41.40
2023-03-06T23:23:22.366Z,41.32
2023-03-06T23:25:48.652Z,41.38
2023-03-06T23:28:14.907Z,41.12
2023-03-06T23:30:41.193Z,41.40
2023-03-06T23:33:07.448Z,41.19
2023-03-06T23:35:33.795Z,41.35
2023-03-06T23:38:00.397Z,41.47
2023-03-06T23:40:26.744Z,41.33
2023-03-06T23:42:53.006Z,41.90
2023-03-06T23:45:19.300Z,42.30
2023-03-06T23:47:45.582Z,42.67
2023-03-06T23:50:12.076Z,42.38
2023-03-06T23:52:38.357Z,42.73
2023-03-06T23:55:04.629Z,42.62
2023-03-06T23:57:30.924Z,42.62
2023-03-06T23:59:57.217Z,42.72
